sensor_id;sensor_type;location;lat;lon;timestamp;P1;durP1;ratioP1;P2;durP2;ratioP2
70899;SDS011;67902;52.154;5.430;2024-01-30T00:00:44;21.45;;;8.90;;
70899;SDS011;67902;52.154;5.430;2024-01-30T00:03:10;18.13;;;8.13;;
70899;SDS011;67902;52.154;5.430;2024-01-30T00:05:37;17.23;;;8.77;;
70899;SDS011;67902;52.154;5.430;2024-01-30T00:08:03;16.95;;;8.20;;
70899;SDS011;67902;52.154;5.430;2024-01-30T00:10:30;17.88;;;8.95;;
70899;SDS011;67902;52.154;5.430;2024-01-30T00:12:57;17.92;;;8.57;;
70899;SDS011;67902;52.154;5.430;2024-01-30T00:15:23;20.35;;;8.85;;
70899;SDS011;67902;52.154;5.430;2024-01-30T00:17:50;16.02;;;8.50;;
70899;SDS011;67902;52.154;5.430;2024-01-30T00:20:19;18.77;;;8.40;;
70899;SDS011;67902;52.154;5.430;2024-01-30T00:22:47;18.20;;;8.10;;
70899;SDS011;67902;52.154;5.430;2024-01-30T00:25:13;18.15;;;7.93;;
70899;SDS011;67902;52.154;5.430;2024-01-30T00:27:40;15.02;;;7.50;;
70899;SDS011;67902;52.154;5.430;2024-01-30T00:30:07;18.60;;;8.95;;
70899;SDS011;67902;52.154;5.430;2024-01-30T00:32:34;17.83;;;7.70;;
70899;SDS011;67902;52.154;5.430;2024-01-30T00:35:01;19.48;;;8.45;;
70899;SDS011;67902;52.154;5.430;2024-01-30T00:37:28;19.17;;;7.72;;
70899;SDS011;67902;52.154;5.430;2024-01-30T00:39:54;22.65;;;8.27;;
70899;SDS011;67902;52.154;5.430;2024-01-30T00:42:21;20.40;;;8.05;;
70899;SDS011;67902;52.154;5.430;2024-01-30T00:44:50;18.98;;;8.00;;
70899;SDS011;67902;52.154;5.430;2024-01-30T00:47:16;18.08;;;8.38;;
70899;SDS011;67902;52.154;5.430;2024-01-30T00:49:43;18.45;;;8.07;;
70899;SDS011;67902;52.154;5.430;2024-01-30T00:52:10;18.83;;;8.23;;
70899;SDS011;67902;52.154;5.430;2024-01-30T00:54:37;20.42;;;8.38;;
70899;SDS011;67902;52.154;5.430;2024-01-30T00:57:04;19.38;;;7.82;;
70899;SDS011;67902;52.154;5.430;2024-01-30T00:59:31;19.85;;;8.20;;
70899;SDS011;67902;52.154;5.430;2024-01-30T01:01:57;17.13;;;7.82;;
70899;SDS011;67902;52.154;5.430;2024-01-30T01:04:24;17.00;;;7.93;;
70899;SDS011;67902;52.154;5.430;2024-01-30T01:06:50;17.38;;;7.75;;
70899;SDS011;67902;52.154;5.430;2024-01-30T01:09:17;16.90;;;8.13;;
70899;SDS011;67902;52.154;5.430;2024-01-30T01:11:44;19.17;;;8.20;;
70899;SDS011;67902;52.154;5.430;2024-01-30T01:14:10;17.73;;;6.95;;
70899;SDS011;67902;52.154;5.430;2024-01-30T01:16:37;16.50;;;7.03;;
70899;SDS011;67902;52.154;5.430;2024-01-30T01:19:03;16.60;;;7.35;;
70899;SDS011;67902;52.154;5.430;2024-01-30T01:21:30;21.30;;;8.55;;
70899;SDS011;67902;52.154;5.430;2024-01-30T01:23:57;16.10;;;7.57;;
70899;SDS011;67902;52.154;5.430;2024-01-30T01:26:24;19.25;;;8.05;;
70899;SDS011;67902;52.154;5.430;2024-01-30T01:28:50;16.27;;;7.28;;
70899;SDS011;67902;52.154;5.430;2024-01-30T01:31:17;16.23;;;7.28;;
70899;SDS011;67902;52.154;5.430;2024-01-30T01:33:44;16.70;;;7.38;;
70899;SDS011;67902;52.154;5.430;2024-01-30T01:36:13;18.10;;;7.65;;
70899;SDS011;67902;52.154;5.430;2024-01-30T01:38:39;13.48;;;6.68;;
70899;SDS011;67902;52.154;5.430;2024-01-30T01:41:06;15.38;;;7.10;;
70899;SDS011;67902;52.154;5.430;2024-01-30T01:43:32;16.20;;;7.20;;
70899;SDS011;67902;52.154;5.430;2024-01-30T01:45:59;15.32;;;6.88;;
70899;SDS011;67902;52.154;5.430;2024-01-30T01:48:25;16.15;;;7.03;;
70899;SDS011;67902;52.154;5.430;2024-01-30T01:50:53;17.42;;;6.65;;
70899;SDS011;67902;52.154;5.430;2024-01-30T01:53:20;18.63;;;7.32;;
70899;SDS011;67902;52.154;5.430;2024-01-30T01:55:46;14.90;;;7.63;;
70899;SDS011;67902;52.154;5.430;2024-01-30T01:58:14;16.98;;;7.13;;
70899;SDS011;67902;52.154;5.430;2024-01-30T02:00:41;19.52;;;7.40;;
70899;SDS011;67902;52.154;5.430;2024-01-30T02:03:10;17.77;;;7.88;;
70899;SDS011;67902;52.154;5.430;2024-01-30T02:05:38;16.45;;;6.68;;
70899;SDS011;67902;52.154;5.430;2024-01-30T02:08:06;15.48;;;6.53;;
70899;SDS011;67902;52.154;5.430;2024-01-30T02:10:33;16.65;;;7.80;;
70899;SDS011;67902;52.154;5.430;2024-01-30T02:13:00;15.38;;;6.68;;
70899;SDS011;67902;52.154;5.430;2024-01-30T02:15:27;15.48;;;6.53;;
70899;SDS011;67902;52.154;5.430;2024-01-30T02:17:55;16.27;;;6.97;;
70899;SDS011;67902;52.154;5.430;2024-01-30T02:20:22;17.38;;;7.63;;
70899;SDS011;67902;52.154;5.430;2024-01-30T02:22:52;18.60;;;7.72;;
70899;SDS011;67902;52.154;5.430;2024-01-30T02:25:20;16.23;;;7.00;;
70899;SDS011;67902;52.154;5.430;2024-01-30T02:27:55;17.20;;;6.85;;
70899;SDS011;67902;52.154;5.430;2024-01-30T02:30:22;13.77;;;7.10;;
70899;SDS011;67902;52.154;5.430;2024-01-30T02:32:49;17.17;;;6.93;;
70899;SDS011;67902;52.154;5.430;2024-01-30T02:35:15;16.42;;;6.22;;
70899;SDS011;67902;52.154;5.430;2024-01-30T02:37:42;16.30;;;6.95;;
70899;SDS011;67902;52.154;5.430;2024-01-30T02:40:08;16.30;;;7.13;;
70899;SDS011;67902;52.154;5.430;2024-01-30T02:42:35;16.58;;;6.65;;
70899;SDS011;67902;52.154;5.430;2024-01-30T02:45:01;13.23;;;6.65;;
70899;SDS011;67902;52.154;5.430;2024-01-30T02:47:28;16.38;;;6.90;;
70899;SDS011;67902;52.154;5.430;2024-01-30T02:49:54;16.63;;;6.55;;
70899;SDS011;67902;52.154;5.430;2024-01-30T02:52:22;15.85;;;6.70;;
70899;SDS011;67902;52.154;5.430;2024-01-30T02:54:48;14.57;;;6.32;;
70899;SDS011;67902;52.154;5.430;2024-01-30T02:57:15;16.55;;;7.28;;
70899;SDS011;67902;52.154;5.430;2024-01-30T02:59:41;16.08;;;7.05;;
70899;SDS011;67902;52.154;5.430;2024-01-30T03:02:08;15.55;;;6.72;;
70899;SDS011;67902;52.154;5.430;2024-01-30T03:04:34;16.17;;;6.45;;
70899;SDS011;67902;52.154;5.430;2024-01-30T03:07:01;16.90;;;7.25;;
70899;SDS011;67902;52.154;5.430;2024-01-30T03:09:28;17.73;;;7.10;;
70899;SDS011;67902;52.154;5.430;2024-01-30T03:11:54;16.38;;;6.93;;
70899;SDS011;67902;52.154;5.430;2024-01-30T03:14:21;20.20;;;7.78;;
70899;SDS011;67902;52.154;5.430;2024-01-30T03:16:47;17.30;;;7.65;;
70899;SDS011;67902;52.154;5.430;2024-01-30T03:19:14;18.13;;;7.93;;
70899;SDS011;67902;52.154;5.430;2024-01-30T03:21:40;18.33;;;7.93;;
70899;SDS011;67902;52.154;5.430;2024-01-30T03:24:07;23.30;;;8.55;;
70899;SDS011;67902;52.154;5.430;2024-01-30T03:26:33;19.13;;;9.20;;
70899;SDS011;67902;52.154;5.430;2024-01-30T03:28:59;18.73;;;7.97;;
70899;SDS011;67902;52.154;5.430;2024-01-30T03:31:26;20.05;;;8.82;;
70899;SDS011;67902;52.154;5.430;2024-01-30T03:33:53;18.95;;;7.88;;
70899;SDS011;67902;52.154;5.430;2024-01-30T03:36:19;20.10;;;9.32;;
70899;SDS011;67902;52.154;5.430;2024-01-30T03:38:46;21.02;;;9.10;;
70899;SDS011;67902;52.154;5.430;2024-01-30T03:41:13;23.30;;;8.77;;
70899;SDS011;67902;52.154;5.430;2024-01-30T03:43:40;21.70;;;9.20;;
70899;SDS011;67902;52.154;5.430;2024-01-30T03:46:07;21.33;;;9.50;;
70899;SDS011;67902;52.154;5.430;2024-01-30T03:48:33;20.83;;;9.68;;
70899;SDS011;67902;52.154;5.430;2024-01-30T03:51:00;20.98;;;8.48;;
70899;SDS011;67902;52.154;5.430;2024-01-30T03:53:26;17.77;;;8.55;;
70899;SDS011;67902;52.154;5.430;2024-01-30T03:55:53;20.90;;;8.43;;
70899;SDS011;67902;52.154;5.430;2024-01-30T03:58:19;18.77;;;7.50;;
70899;SDS011;67902;52.154;5.430;2024-01-30T04:00:46;19.25;;;7.72;;
70899;SDS011;67902;52.154;5.430;2024-01-30T04:03:14;19.45;;;7.70;;
70899;SDS011;67902;52.154;5.430;2024-01-30T04:05:41;19.00;;;7.20;;
70899;SDS011;67902;52.154;5.430;2024-01-30T04:08:08;24.13;;;7.63;;
70899;SDS011;67902;52.154;5.430;2024-01-30T04:10:35;18.83;;;7.18;;
70899;SDS011;67902;52.154;5.430;2024-01-30T04:13:01;17.63;;;7.60;;
70899;SDS011;67902;52.154;5.430;2024-01-30T04:15:28;16.55;;;6.95;;
70899;SDS011;67902;52.154;5.430;2024-01-30T04:17:58;14.18;;;6.28;;
70899;SDS011;67902;52.154;5.430;2024-01-30T04:20:25;14.50;;;6.15;;
70899;SDS011;67902;52.154;5.430;2024-01-30T04:22:52;14.50;;;6.70;;
70899;SDS011;67902;52.154;5.430;2024-01-30T04:25:18;15.80;;;5.88;;
70899;SDS011;67902;52.154;5.430;2024-01-30T04:27:45;12.77;;;6.05;;
70899;SDS011;67902;52.154;5.430;2024-01-30T04:30:11;12.95;;;5.28;;
70899;SDS011;67902;52.154;5.430;2024-01-30T04:32:38;14.98;;;5.85;;
70899;SDS011;67902;52.154;5.430;2024-01-30T04:35:05;15.15;;;6.72;;
70899;SDS011;67902;52.154;5.430;2024-01-30T04:37:36;11.65;;;4.82;;
70899;SDS011;67902;52.154;5.430;2024-01-30T04:40:03;13.35;;;5.72;;
70899;SDS011;67902;52.154;5.430;2024-01-30T04:42:31;13.00;;;6.35;;
70899;SDS011;67902;52.154;5.430;2024-01-30T04:44:58;14.18;;;6.22;;
70899;SDS011;67902;52.154;5.430;2024-01-30T04:47:24;13.70;;;5.60;;
70899;SDS011;67902;52.154;5.430;2024-01-30T04:49:51;14.65;;;6.00;;
70899;SDS011;67902;52.154;5.430;2024-01-30T04:52:18;13.20;;;5.60;;
70899;SDS011;67902;52.154;5.430;2024-01-30T04:54:44;15.57;;;6.55;;
70899;SDS011;67902;52.154;5.430;2024-01-30T04:57:11;16.52;;;6.00;;
70899;SDS011;67902;52.154;5.430;2024-01-30T04:59:39;13.10;;;5.72;;
70899;SDS011;67902;52.154;5.430;2024-01-30T05:02:05;14.23;;;5.40;;
70899;SDS011;67902;52.154;5.430;2024-01-30T05:04:33;15.88;;;5.85;;
70899;SDS011;67902;52.154;5.430;2024-01-30T05:07:00;12.85;;;5.30;;
70899;SDS011;67902;52.154;5.430;2024-01-30T05:09:26;13.02;;;5.75;;
70899;SDS011;67902;52.154;5.430;2024-01-30T05:11:53;11.80;;;5.25;;
70899;SDS011;67902;52.154;5.430;2024-01-30T05:14:19;15.05;;;6.05;;
70899;SDS011;67902;52.154;5.430;2024-01-30T05:16:46;13.50;;;6.35;;
70899;SDS011;67902;52.154;5.430;2024-01-30T05:19:13;15.18;;;6.60;;
70899;SDS011;67902;52.154;5.430;2024-01-30T05:21:41;13.93;;;6.38;;
70899;SDS011;67902;52.154;5.430;2024-01-30T05:24:08;11.75;;;5.18;;
70899;SDS011;67902;52.154;5.430;2024-01-30T05:26:36;14.80;;;5.85;;
70899;SDS011;67902;52.154;5.430;2024-01-30T05:29:02;13.55;;;6.10;;
70899;SDS011;67902;52.154;5.430;2024-01-30T05:31:29;12.23;;;4.70;;
70899;SDS011;67902;52.154;5.430;2024-01-30T05:33:56;13.00;;;5.45;;
70899;SDS011;67902;52.154;5.430;2024-01-30T05:36:22;12.30;;;6.18;;
70899;SDS011;67902;52.154;5.430;2024-01-30T05:38:49;12.65;;;5.63;;
70899;SDS011;67902;52.154;5.430;2024-01-30T05:41:15;12.23;;;5.30;;
70899;SDS011;67902;52.154;5.430;2024-01-30T05:43:42;12.55;;;5.38;;
70899;SDS011;67902;52.154;5.430;2024-01-30T05:46:08;19.05;;;7.28;;
70899;SDS011;67902;52.154;5.430;2024-01-30T05:48:35;12.90;;;5.85;;
70899;SDS011;67902;52.154;5.430;2024-01-30T05:51:02;19.85;;;6.68;;
70899;SDS011;67902;52.154;5.430;2024-01-30T05:53:30;16.27;;;6.25;;
70899;SDS011;67902;52.154;5.430;2024-01-30T05:55:56;15.50;;;6.15;;
70899;SDS011;67902;52.154;5.430;2024-01-30T05:58:23;15.77;;;6.20;;
70899;SDS011;67902;52.154;5.430;2024-01-30T06:00:50;14.63;;;5.65;;
70899;SDS011;67902;52.154;5.430;2024-01-30T06:03:16;14.80;;;5.63;;
70899;SDS011;67902;52.154;5.430;2024-01-30T06:05:43;14.15;;;5.65;;
70899;SDS011;67902;52.154;5.430;2024-01-30T06:08:09;14.25;;;6.20;;
70899;SDS011;67902;52.154;5.430;2024-01-30T06:10:36;14.90;;;5.93;;
70899;SDS011;67902;52.154;5.430;2024-01-30T06:13:03;13.65;;;5.45;;
70899;SDS011;67902;52.154;5.430;2024-01-30T06:15:29;13.00;;;6.40;;
70899;SDS011;67902;52.154;5.430;2024-01-30T06:17:56;13.18;;;5.57;;
70899;SDS011;67902;52.154;5.430;2024-01-30T06:20:22;14.65;;;6.38;;
70899;SDS011;67902;52.154;5.430;2024-01-30T06:22:49;15.20;;;6.03;;
70899;SDS011;67902;52.154;5.430;2024-01-30T06:25:16;15.85;;;5.45;;
70899;SDS011;67902;52.154;5.430;2024-01-30T06:27:43;14.60;;;5.93;;
70899;SDS011;67902;52.154;5.430;2024-01-30T06:30:10;11.95;;;4.93;;
70899;SDS011;67902;52.154;5.430;2024-01-30T06:32:37;15.88;;;7.10;;
70899;SDS011;67902;52.154;5.430;2024-01-30T06:35:04;15.63;;;5.95;;
70899;SDS011;67902;52.154;5.430;2024-01-30T06:39:58;13.57;;;5.60;;
70899;SDS011;67902;52.154;5.430;2024-01-30T06:42:25;12.20;;;5.55;;
70899;SDS011;67902;52.154;5.430;2024-01-30T06:44:51;13.57;;;6.05;;
70899;SDS011;67902;52.154;5.430;2024-01-30T06:47:18;13.98;;;4.78;;
70899;SDS011;67902;52.154;5.430;2024-01-30T06:49:45;16.23;;;5.78;;
70899;SDS011;67902;52.154;5.430;2024-01-30T06:52:11;11.55;;;5.25;;
70899;SDS011;67902;52.154;5.430;2024-01-30T06:54:38;11.55;;;4.28;;
70899;SDS011;67902;52.154;5.430;2024-01-30T06:59:38;14.13;;;5.82;;
70899;SDS011;67902;52.154;5.430;2024-01-30T07:02:10;14.55;;;5.70;;
70899;SDS011;67902;52.154;5.430;2024-01-30T07:04:37;22.42;;;6.05;;
70899;SDS011;67902;52.154;5.430;2024-01-30T07:07:08;15.35;;;5.93;;
70899;SDS011;67902;52.154;5.430;2024-01-30T07:09:38;12.55;;;5.30;;
70899;SDS011;67902;52.154;5.430;2024-01-30T07:12:05;13.23;;;5.53;;
70899;SDS011;67902;52.154;5.430;2024-01-30T07:14:32;16.75;;;6.40;;
70899;SDS011;67902;52.154;5.430;2024-01-30T07:16:59;13.15;;;6.45;;
70899;SDS011;67902;52.154;5.430;2024-01-30T07:19:26;12.38;;;4.65;;
70899;SDS011;67902;52.154;5.430;2024-01-30T07:21:52;14.60;;;6.35;;
70899;SDS011;67902;52.154;5.430;2024-01-30T07:24:19;14.02;;;5.68;;
70899;SDS011;67902;52.154;5.430;2024-01-30T07:26:46;14.90;;;5.68;;
70899;SDS011;67902;52.154;5.430;2024-01-30T07:29:12;18.85;;;5.97;;
70899;SDS011;67902;52.154;5.430;2024-01-30T07:31:39;9.45;;;4.60;;
70899;SDS011;67902;52.154;5.430;2024-01-30T07:34:06;12.02;;;5.20;;
70899;SDS011;67902;52.154;5.430;2024-01-30T07:36:33;12.57;;;5.20;;
70899;SDS011;67902;52.154;5.430;2024-01-30T07:38:59;15.82;;;6.22;;
70899;SDS011;67902;52.154;5.430;2024-01-30T07:41:26;13.50;;;5.97;;
70899;SDS011;67902;52.154;5.430;2024-01-30T07:43:53;15.32;;;6.07;;
70899;SDS011;67902;52.154;5.430;2024-01-30T07:46:20;11.85;;;5.38;;
70899;SDS011;67902;52.154;5.430;2024-01-30T07:48:46;11.55;;;4.93;;
70899;SDS011;67902;52.154;5.430;2024-01-30T07:51:13;16.52;;;5.85;;
70899;SDS011;67902;52.154;5.430;2024-01-30T07:53:40;12.57;;;5.70;;
70899;SDS011;67902;52.154;5.430;2024-01-30T07:56:08;14.20;;;5.25;;
70899;SDS011;67902;52.154;5.430;2024-01-30T07:58:34;14.75;;;5.60;;
70899;SDS011;67902;52.154;5.430;2024-01-30T08:01:01;11.63;;;5.20;;
70899;SDS011;67902;52.154;5.430;2024-01-30T08:03:28;16.35;;;5.68;;
70899;SDS011;67902;52.154;5.430;2024-01-30T08:05:55;12.45;;;5.55;;
70899;SDS011;67902;52.154;5.430;2024-01-30T08:08:21;15.13;;;6.43;;
70899;SDS011;67902;52.154;5.430;2024-01-30T08:10:48;12.15;;;5.63;;
70899;SDS011;67902;52.154;5.430;2024-01-30T08:13:16;13.88;;;5.72;;
70899;SDS011;67902;52.154;5.430;2024-01-30T08:15:42;15.60;;;6.38;;
70899;SDS011;67902;52.154;5.430;2024-01-30T08:18:09;14.40;;;4.85;;
70899;SDS011;67902;52.154;5.430;2024-01-30T08:20:36;14.18;;;5.93;;
70899;SDS011;67902;52.154;5.430;2024-01-30T08:23:02;14.65;;;6.13;;
70899;SDS011;67902;52.154;5.430;2024-01-30T08:25:29;15.43;;;5.60;;
70899;SDS011;67902;52.154;5.430;2024-01-30T08:27:56;19.45;;;6.43;;
70899;SDS011;67902;52.154;5.430;2024-01-30T08:30:24;15.68;;;5.50;;
70899;SDS011;67902;52.154;5.430;2024-01-30T08:32:50;11.52;;;5.18;;
70899;SDS011;67902;52.154;5.430;2024-01-30T08:35:18;11.35;;;5.13;;
70899;SDS011;67902;52.154;5.430;2024-01-30T08:37:45;16.17;;;5.88;;
70899;SDS011;67902;52.154;5.430;2024-01-30T08:40:11;15.73;;;5.40;;
70899;SDS011;67902;52.154;5.430;2024-01-30T08:42:38;13.80;;;6.03;;
70899;SDS011;67902;52.154;5.430;2024-01-30T08:45:05;13.07;;;5.50;;
70899;SDS011;67902;52.154;5.430;2024-01-30T08:47:32;16.75;;;6.38;;
70899;SDS011;67902;52.154;5.430;2024-01-30T08:49:59;12.73;;;5.35;;
70899;SDS011;67902;52.154;5.430;2024-01-30T08:52:26;16.88;;;6.45;;
70899;SDS011;67902;52.154;5.430;2024-01-30T08:54:53;17.60;;;6.22;;
70899;SDS011;67902;52.154;5.430;2024-01-30T08:57:20;23.45;;;6.95;;
70899;SDS011;67902;52.154;5.430;2024-01-30T08:59:47;14.60;;;5.32;;
70899;SDS011;67902;52.154;5.430;2024-01-30T09:02:14;14.68;;;5.88;;
70899;SDS011;67902;52.154;5.430;2024-01-30T09:04:42;16.80;;;5.68;;
70899;SDS011;67902;52.154;5.430;2024-01-30T09:07:09;15.98;;;6.28;;
70899;SDS011;67902;52.154;5.430;2024-01-30T09:09:40;14.57;;;5.70;;
70899;SDS011;67902;52.154;5.430;2024-01-30T09:12:07;15.15;;;5.53;;
70899;SDS011;67902;52.154;5.430;2024-01-30T09:14:36;17.08;;;5.63;;
70899;SDS011;67902;52.154;5.430;2024-01-30T09:19:30;14.88;;;5.85;;
70899;SDS011;67902;52.154;5.430;2024-01-30T09:21:57;16.70;;;5.32;;
70899;SDS011;67902;52.154;5.430;2024-01-30T09:24:24;13.63;;;5.70;;
70899;SDS011;67902;52.154;5.430;2024-01-30T09:26:52;18.85;;;6.30;;
70899;SDS011;67902;52.154;5.430;2024-01-30T09:29:19;13.20;;;4.47;;
70899;SDS011;67902;52.154;5.430;2024-01-30T09:31:45;15.85;;;6.03;;
70899;SDS011;67902;52.154;5.430;2024-01-30T09:34:12;16.33;;;5.93;;
70899;SDS011;67902;52.154;5.430;2024-01-30T09:39:06;19.83;;;6.15;;
70899;SDS011;67902;52.154;5.430;2024-01-30T09:41:33;12.60;;;4.65;;
70899;SDS011;67902;52.154;5.430;2024-01-30T09:44:11;14.82;;;4.72;;
70899;SDS011;67902;52.154;5.430;2024-01-30T09:46:39;12.93;;;5.60;;
70899;SDS011;67902;52.154;5.430;2024-01-30T09:49:06;12.15;;;5.50;;
70899;SDS011;67902;52.154;5.430;2024-01-30T09:51:35;11.60;;;5.25;;
70899;SDS011;67902;52.154;5.430;2024-01-30T09:54:02;12.60;;;5.55;;
70899;SDS011;67902;52.154;5.430;2024-01-30T09:56:29;13.80;;;5.78;;
70899;SDS011;67902;52.154;5.430;2024-01-30T09:58:55;16.77;;;6.18;;
70899;SDS011;67902;52.154;5.430;2024-01-30T10:01:22;13.80;;;5.70;;
70899;SDS011;67902;52.154;5.430;2024-01-30T10:03:50;15.68;;;5.65;;
70899;SDS011;67902;52.154;5.430;2024-01-30T10:06:19;20.63;;;6.10;;
70899;SDS011;67902;52.154;5.430;2024-01-30T10:08:48;15.27;;;6.07;;
70899;SDS011;67902;52.154;5.430;2024-01-30T10:11:14;13.57;;;5.57;;
70899;SDS011;67902;52.154;5.430;2024-01-30T10:13:41;11.68;;;5.25;;
70899;SDS011;67902;52.154;5.430;2024-01-30T10:16:07;14.30;;;5.97;;
70899;SDS011;67902;52.154;5.430;2024-01-30T10:18:34;12.35;;;5.15;;
70899;SDS011;67902;52.154;5.430;2024-01-30T10:21:01;14.95;;;5.53;;
70899;SDS011;67902;52.154;5.430;2024-01-30T10:23:28;17.52;;;5.88;;
70899;SDS011;67902;52.154;5.430;2024-01-30T10:26:02;12.90;;;5.30;;
70899;SDS011;67902;52.154;5.430;2024-01-30T10:28:30;13.63;;;5.45;;
70899;SDS011;67902;52.154;5.430;2024-01-30T10:30:57;15.55;;;5.95;;
70899;SDS011;67902;52.154;5.430;2024-01-30T10:33:30;14.73;;;6.18;;
70899;SDS011;67902;52.154;5.430;2024-01-30T10:36:04;13.00;;;5.68;;
70899;SDS011;67902;52.154;5.430;2024-01-30T10:38:31;15.95;;;5.15;;
70899;SDS011;67902;52.154;5.430;2024-01-30T10:43:30;10.25;;;5.18;;
70899;SDS011;67902;52.154;5.430;2024-01-30T10:46:06;11.95;;;5.78;;
70899;SDS011;67902;52.154;5.430;2024-01-30T10:48:41;12.48;;;4.72;;
70899;SDS011;67902;52.154;5.430;2024-01-30T10:51:11;13.80;;;5.40;;
70899;SDS011;67902;52.154;5.430;2024-01-30T10:53:39;15.93;;;6.30;;
70899;SDS011;67902;52.154;5.430;2024-01-30T10:56:05;13.18;;;5.07;;
70899;SDS011;67902;52.154;5.430;2024-01-30T10:58:34;11.23;;;5.40;;
70899;SDS011;67902;52.154;5.430;2024-01-30T11:01:00;12.38;;;5.03;;
70899;SDS011;67902;52.154;5.430;2024-01-30T11:03:28;14.55;;;4.93;;
70899;SDS011;67902;52.154;5.430;2024-01-30T11:05:58;9.63;;;3.85;;
70899;SDS011;67902;52.154;5.430;2024-01-30T11:08:26;16.17;;;5.03;;
70899;SDS011;67902;52.154;5.430;2024-01-30T11:10:58;12.55;;;4.70;;
70899;SDS011;67902;52.154;5.430;2024-01-30T11:13:31;13.52;;;4.65;;
70899;SDS011;67902;52.154;5.430;2024-01-30T11:16:04;10.70;;;4.13;;
70899;SDS011;67902;52.154;5.430;2024-01-30T11:18:32;12.88;;;4.55;;
70899;SDS011;67902;52.154;5.430;2024-01-30T11:20:59;14.70;;;5.00;;
70899;SDS011;67902;52.154;5.430;2024-01-30T11:23:28;11.18;;;4.28;;
70899;SDS011;67902;52.154;5.430;2024-01-30T11:25:55;9.27;;;4.13;;
70899;SDS011;67902;52.154;5.430;2024-01-30T11:28:22;11.35;;;3.83;;
70899;SDS011;67902;52.154;5.430;2024-01-30T11:30:49;10.25;;;3.80;;
70899;SDS011;67902;52.154;5.430;2024-01-30T11:33:28;9.15;;;3.38;;
70899;SDS011;67902;52.154;5.430;2024-01-30T11:36:00;7.47;;;2.65;;
70899;SDS011;67902;52.154;5.430;2024-01-30T11:38:28;8.10;;;2.42;;
70899;SDS011;67902;52.154;5.430;2024-01-30T11:40:55;14.27;;;2.35;;
70899;SDS011;67902;52.154;5.430;2024-01-30T11:43:23;6.78;;;2.58;;
70899;SDS011;67902;52.154;5.430;2024-01-30T11:45:50;6.82;;;2.85;;
70899;SDS011;67902;52.154;5.430;2024-01-30T11:48:17;9.23;;;2.47;;
70899;SDS011;67902;52.154;5.430;2024-01-30T11:50:44;8.60;;;2.45;;
70899;SDS011;67902;52.154;5.430;2024-01-30T11:53:10;7.82;;;2.40;;
70899;SDS011;67902;52.154;5.430;2024-01-30T11:55:37;6.82;;;1.77;;
70899;SDS011;67902;52.154;5.430;2024-01-30T11:58:04;6.28;;;1.27;;
70899;SDS011;67902;52.154;5.430;2024-01-30T12:00:31;8.40;;;1.40;;
70899;SDS011;67902;52.154;5.430;2024-01-30T12:02:59;8.43;;;1.55;;
70899;SDS011;67902;52.154;5.430;2024-01-30T12:07:54;5.47;;;1.38;;
70899;SDS011;67902;52.154;5.430;2024-01-30T12:10:21;10.07;;;1.33;;
70899;SDS011;67902;52.154;5.430;2024-01-30T12:12:49;4.75;;;1.33;;
70899;SDS011;67902;52.154;5.430;2024-01-30T12:15:16;7.95;;;1.75;;
70899;SDS011;67902;52.154;5.430;2024-01-30T12:17:44;8.02;;;1.40;;
70899;SDS011;67902;52.154;5.430;2024-01-30T12:20:12;7.28;;;1.45;;
70899;SDS011;67902;52.154;5.430;2024-01-30T12:22:41;9.05;;;2.30;;
70899;SDS011;67902;52.154;5.430;2024-01-30T12:25:09;8.07;;;2.10;;
70899;SDS011;67902;52.154;5.430;2024-01-30T12:27:41;4.93;;;1.55;;
70899;SDS011;67902;52.154;5.430;2024-01-30T12:30:10;7.07;;;1.92;;
70899;SDS011;67902;52.154;5.430;2024-01-30T12:32:40;7.75;;;2.40;;
70899;SDS011;67902;52.154;5.430;2024-01-30T12:35:11;5.22;;;1.83;;
70899;SDS011;67902;52.154;5.430;2024-01-30T12:37:39;9.95;;;2.65;;
70899;SDS011;67902;52.154;5.430;2024-01-30T12:40:09;8.43;;;2.20;;
70899;SDS011;67902;52.154;5.430;2024-01-30T12:42:37;7.60;;;1.98;;
70899;SDS011;67902;52.154;5.430;2024-01-30T12:45:04;5.15;;;1.70;;
70899;SDS011;67902;52.154;5.430;2024-01-30T12:47:31;8.57;;;1.98;;
70899;SDS011;67902;52.154;5.430;2024-01-30T12:50:01;7.50;;;2.20;;
70899;SDS011;67902;52.154;5.430;2024-01-30T12:52:28;5.82;;;1.33;;
70899;SDS011;67902;52.154;5.430;2024-01-30T12:57:21;6.57;;;1.80;;
70899;SDS011;67902;52.154;5.430;2024-01-30T12:59:48;4.75;;;1.70;;
70899;SDS011;67902;52.154;5.430;2024-01-30T13:02:15;12.32;;;2.28;;
70899;SDS011;67902;52.154;5.430;2024-01-30T13:04:42;6.78;;;1.80;;
70899;SDS011;67902;52.154;5.430;2024-01-30T13:07:13;7.25;;;2.35;;
70899;SDS011;67902;52.154;5.430;2024-01-30T13:09:39;6.85;;;2.70;;
70899;SDS011;67902;52.154;5.430;2024-01-30T13:12:06;7.07;;;2.22;;
70899;SDS011;67902;52.154;5.430;2024-01-30T13:14:33;8.20;;;2.20;;
70899;SDS011;67902;52.154;5.430;2024-01-30T13:16:59;5.05;;;1.42;;
70899;SDS011;67902;52.154;5.430;2024-01-30T13:19:26;4.93;;;1.35;;
70899;SDS011;67902;52.154;5.430;2024-01-30T13:21:53;7.78;;;2.10;;
70899;SDS011;67902;52.154;5.430;2024-01-30T13:24:19;7.82;;;1.75;;
70899;SDS011;67902;52.154;5.430;2024-01-30T13:29:14;5.60;;;1.58;;
70899;SDS011;67902;52.154;5.430;2024-01-30T13:31:41;5.00;;;1.30;;
70899;SDS011;67902;52.154;5.430;2024-01-30T13:34:08;5.82;;;1.10;;
70899;SDS011;67902;52.154;5.430;2024-01-30T13:36:34;3.50;;;1.00;;
70899;SDS011;67902;52.154;5.430;2024-01-30T13:39:01;3.83;;;0.90;;
70899;SDS011;67902;52.154;5.430;2024-01-30T13:41:28;3.42;;;0.93;;
70899;SDS011;67902;52.154;5.430;2024-01-30T13:43:56;6.32;;;1.00;;
70899;SDS011;67902;52.154;5.430;2024-01-30T13:46:22;4.53;;;1.10;;
70899;SDS011;67902;52.154;5.430;2024-01-30T13:48:49;4.15;;;1.10;;
70899;SDS011;67902;52.154;5.430;2024-01-30T13:51:16;6.45;;;1.35;;
70899;SDS011;67902;52.154;5.430;2024-01-30T13:53:43;4.45;;;1.35;;
70899;SDS011;67902;52.154;5.430;2024-01-30T13:56:10;3.33;;;1.10;;
70899;SDS011;67902;52.154;5.430;2024-01-30T13:58:36;5.05;;;1.30;;
70899;SDS011;67902;52.154;5.430;2024-01-30T14:01:03;6.97;;;1.35;;
70899;SDS011;67902;52.154;5.430;2024-01-30T14:03:31;5.82;;;1.60;;
70899;SDS011;67902;52.154;5.430;2024-01-30T14:05:58;5.60;;;1.40;;
70899;SDS011;67902;52.154;5.430;2024-01-30T14:08:25;7.00;;;1.30;;
70899;SDS011;67902;52.154;5.430;2024-01-30T14:10:54;11.98;;;1.60;;
70899;SDS011;67902;52.154;5.430;2024-01-30T14:13:23;7.82;;;1.40;;
70899;SDS011;67902;52.154;5.430;2024-01-30T14:15:51;8.88;;;1.70;;
70899;SDS011;67902;52.154;5.430;2024-01-30T14:18:19;7.40;;;1.80;;
70899;SDS011;67902;52.154;5.430;2024-01-30T14:20:45;5.18;;;1.58;;
70899;SDS011;67902;52.154;5.430;2024-01-30T14:23:12;5.43;;;1.70;;
70899;SDS011;67902;52.154;5.430;2024-01-30T14:25:38;6.70;;;1.83;;
70899;SDS011;67902;52.154;5.430;2024-01-30T14:28:05;4.18;;;1.10;;
70899;SDS011;67902;52.154;5.430;2024-01-30T14:30:33;5.07;;;1.42;;
70899;SDS011;67902;52.154;5.430;2024-01-30T14:32:59;4.15;;;1.35;;
70899;SDS011;67902;52.154;5.430;2024-01-30T14:35:26;3.75;;;1.23;;
70899;SDS011;67902;52.154;5.430;2024-01-30T14:37:52;8.52;;;1.23;;
70899;SDS011;67902;52.154;5.430;2024-01-30T14:40:19;3.80;;;0.85;;
70899;SDS011;67902;52.154;5.430;2024-01-30T14:42:46;5.00;;;1.35;;
70899;SDS011;67902;52.154;5.430;2024-01-30T14:45:13;4.95;;;1.20;;
70899;SDS011;67902;52.154;5.430;2024-01-30T14:47:39;5.40;;;1.38;;
70899;SDS011;67902;52.154;5.430;2024-01-30T14:50:07;9.45;;;1.52;;
70899;SDS011;67902;52.154;5.430;2024-01-30T14:52:35;4.90;;;1.33;;
70899;SDS011;67902;52.154;5.430;2024-01-30T14:55:02;5.78;;;1.40;;
70899;SDS011;67902;52.154;5.430;2024-01-30T14:57:28;5.80;;;1.55;;